Time;durP1;ratioP1;P1;durP2;ratioP2;P2;SDS_P1;SDS_P2;PMS_P1;PMS_P2;Temp;Humidity;BMP_temperature;BMP_pressure;BME280_temperature;BME280_humidity;BME280_pressure;Samples;Min_cycle;Max_cycle;Signal;HPM_P1;HPM_P2
2023/04/03 00:02:08;;;;;;;;;;;8.60;99.90;;;;;;5076248;28;19952;-57
2023/04/03 00:04:34;;;;;;;;;;;8.70;99.90;;;;;;5076178;28;19912;-56
2023/04/03 00:07:00;;;;;;;;;;;8.70;99.90;;;;;;5076452;28;20003;-57
2023/04/03 00:09:26;;;;;;;;;;;8.70;99.90;;;;;;5076210;28;20385;-56
2023/04/03 00:11:51;;;;;;;;;;;8.70;99.90;;;;;;5076140;28;19966;-57
2023/04/03 00:14:17;;;;;;;;;;;8.70;99.90;;;;;;5076210;28;19916;-57
2023/04/03 00:16:43;;;;;;;;;;;8.70;99.90;;;;;;5076061;28;20362;-57
2023/04/03 00:19:11;;;;;;;;;;;8.70;99.90;;;;;;5076349;28;20281;-57
2023/04/03 00:21:37;;;;;;;;;;;8.70;99.90;;;;;;5075973;28;19962;-57
2023/04/03 00:24:03;;;;;;;;;;;8.80;99.90;;;;;;5075923;28;19912;-57
2023/04/03 00:26:29;;;;;;;;;;;8.80;99.90;;;;;;5076050;28;20362;-57
2023/04/03 00:28:55;;;;;;;;;;;8.90;99.90;;;;;;5076114;28;19912;-57
2023/04/03 00:31:21;;;;;;;;;;;8.90;99.90;;;;;;5075080;28;19919;-57
2023/04/03 00:33:47;;;;;;;;;;;8.90;99.90;;;;;;5075917;28;19995;-57
2023/04/03 00:36:13;;;;;;;;;;;9.10;99.90;;;;;;5075812;28;19920;-57
2023/04/03 00:38:39;;;;;;;;;;;9.10;99.90;;;;;;5075704;28;20007;-57
2023/04/03 00:41:05;;;;;;;;;;;9.20;99.90;;;;;;5075724;28;20337;-56
2023/04/03 00:43:31;;;;;;;;;;;9.20;99.90;;;;;;5075738;28;19955;-57
2023/04/03 00:45:57;;;;;;;;;;;9.30;99.90;;;;;;5057597;28;20354;-57
2023/04/03 00:48:23;;;;;;;;;;;9.20;99.90;;;;;;5075577;28;19916;-57
2023/04/03 00:50:50;;;;;;;;;;;9.20;99.90;;;;;;5075462;28;19912;-56
2023/04/03 00:53:19;;;;;;;;;;;9.00;99.90;;;;;;5075248;28;20318;-57
2023/04/03 00:55:46;;;;;;;;;;;9.00;99.90;;;;;;5057772;28;19962;-57
2023/04/03 00:58:13;;;;;;;;;;;9.00;99.90;;;;;;5075291;28;20527;-57
2023/04/03 01:00:40;;;;;;;;;;;9.00;99.90;;;;;;5075363;28;19909;-57
2023/04/03 01:03:06;;;;;;;;;;;9.10;99.90;;;;;;5075387;28;19964;-57
2023/04/03 01:05:32;;;;;;;;;;;9.10;99.90;;;;;;5075066;28;19923;-57
2023/04/03 01:07:59;;;;;;;;;;;8.80;99.90;;;;;;5075088;28;20369;-57
2023/04/03 01:10:25;;;;;;;;;;;8.80;99.90;;;;;;5075303;28;19995;-57
2023/04/03 01:12:51;;;;;;;;;;;8.80;99.90;;;;;;5057256;28;20002;-57
2023/04/03 01:15:25;;;;;;;;;;;8.80;99.90;;;;;;5075110;28;19955;-57
2023/04/03 01:17:57;;;;;;;;;;;8.80;99.90;;;;;;5074985;28;19998;-57
2023/04/03 01:20:32;;;;;;;;;;;8.70;99.90;;;;;;5075087;28;19995;-57
2023/04/03 01:23:05;;;;;;;;;;;8.70;99.90;;;;;;5075100;28;19919;-56
2023/04/03 01:25:31;;;;;;;;;;;8.70;99.90;;;;;;5057030;28;20010;-56
2023/04/03 01:27:58;;;;;;;;;;;8.60;99.90;;;;;;5056923;28;20007;-57
2023/04/03 01:30:27;;;;;;;;;;;8.50;99.90;;;;;;5075170;28;19955;-56
2023/04/03 01:32:53;;;;;;;;;;;8.40;99.90;;;;;;5057002;28;20016;-57
2023/04/03 01:35:19;;;;;;;;;;;8.30;99.90;;;;;;5075052;28;19956;-57
2023/04/03 01:37:45;;;;;;;;;;;8.40;99.90;;;;;;5056884;28;20334;-57
2023/04/03 01:40:11;;;;;;;;;;;8.30;99.90;;;;;;5074962;28;20006;-56
2023/04/03 01:42:37;;;;;;;;;;;8.40;99.90;;;;;;5074619;28;20316;-57
2023/04/03 01:45:03;;;;;;;;;;;8.40;99.90;;;;;;5056829;28;19913;-56
2023/04/03 01:47:29;;;;;;;;;;;8.20;99.90;;;;;;5075057;28;19913;-57
2023/04/03 01:49:55;;;;;;;;;;;8.10;99.90;;;;;;5056801;28;19943;-57
2023/04/03 01:52:21;;;;;;;;;;;8.10;99.90;;;;;;5074674;28;19916;-57
2023/04/03 01:54:47;;;;;;;;;;;7.80;99.90;;;;;;5074607;28;20007;-56
2023/04/03 01:57:14;;;;;;;;;;;7.70;99.90;;;;;;5074588;28;19916;-56
2023/04/03 01:59:41;;;;;;;;;;;7.70;99.90;;;;;;5056651;28;19951;-57
2023/04/03 02:02:06;;;;;;;;;;;7.60;99.90;;;;;;5056606;28;19981;-56
2023/04/03 02:04:32;;;;;;;;;;;7.70;99.90;;;;;;5039887;28;19919;-56
2023/04/03 02:06:58;;;;;;;;;;;7.50;99.90;;;;;;5056696;28;19917;-56
2023/04/03 02:09:24;;;;;;;;;;;7.50;99.90;;;;;;5074535;28;20273;-56
2023/04/03 02:11:52;;;;;;;;;;;7.40;99.90;;;;;;5056611;28;19939;-56
2023/04/03 02:14:18;;;;;;;;;;;7.40;99.90;;;;;;5056681;28;20293;-57
2023/04/03 02:16:44;;;;;;;;;;;7.30;99.90;;;;;;5056358;28;19967;-56
2023/04/03 02:19:10;;;;;;;;;;;7.40;99.90;;;;;;5074457;28;19913;-57
2023/04/03 02:21:36;;;;;;;;;;;7.30;99.90;;;;;;5074521;28;19917;-56
2023/04/03 02:24:02;;;;;;;;;;;7.30;99.90;;;;;;5074383;28;19965;-56
2023/04/03 02:26:27;;;;;;;;;;;7.40;99.90;;;;;;5056431;28;19912;-56
2023/04/03 02:28:53;;;;;;;;;;;7.40;99.90;;;;;;5074392;28;20428;-56
2023/04/03 02:31:20;;;;;;;;;;;7.40;99.90;;;;;;5074332;28;19912;-56
2023/04/03 02:33:46;;;;;;;;;;;7.40;99.90;;;;;;5056342;28;19916;-56
2023/04/03 02:36:14;;;;;;;;;;;7.20;99.90;;;;;;5056282;28;19912;-56
2023/04/03 02:38:43;;;;;;;;;;;7.20;99.90;;;;;;5056318;28;19967;-56
2023/04/03 02:41:11;;;;;;;;;;;7.10;99.90;;;;;;5056088;28;19909;-58
2023/04/03 02:43:37;;;;;;;;;;;7.10;99.90;;;;;;5056447;28;19916;-56
2023/04/03 02:46:05;;;;;;;;;;;7.10;99.90;;;;;;5056231;28;19940;-56
2023/04/03 02:48:30;;;;;;;;;;;7.10;99.90;;;;;;5074131;28;19912;-56
2023/04/03 02:50:57;;;;;;;;;;;7.20;99.90;;;;;;5056305;28;19923;-56
2023/04/03 02:53:22;;;;;;;;;;;7.10;99.90;;;;;;5074010;28;20424;-56
2023/04/03 02:55:49;;;;;;;;;;;7.10;99.90;;;;;;5058994;28;19913;-56
2023/04/03 02:58:15;;;;;;;;;;;7.00;99.90;;;;;;5059806;28;19923;-56
2023/04/03 03:00:41;;;;;;;;;;;7.00;99.90;;;;;;5077556;28;20385;-56
2023/04/03 03:03:07;;;;;;;;;;;7.00;99.90;;;;;;5059673;28;19986;-56
2023/04/03 03:05:33;;;;;;;;;;;6.80;99.90;;;;;;5059787;28;20007;-56
2023/04/03 03:07:59;;;;;;;;;;;6.70;99.90;;;;;;5059355;28;19959;-56
2023/04/03 03:10:25;;;;;;;;;;;6.60;99.90;;;;;;5077410;28;19966;-56
2023/04/03 03:12:51;;;;;;;;;;;6.60;99.90;;;;;;5077819;28;19960;-56
2023/04/03 03:15:17;;;;;;;;;;;6.60;99.90;;;;;;5077273;28;19921;-56
2023/04/03 03:17:43;;;;;;;;;;;6.50;99.90;;;;;;5077407;28;20039;-56
2023/04/03 03:20:09;;;;;;;;;;;6.60;99.90;;;;;;5059407;28;19916;-56
2023/04/03 03:22:35;;;;;;;;;;;6.50;99.90;;;;;;5077066;28;19909;-56
2023/04/03 03:25:02;;;;;;;;;;;6.50;99.90;;;;;;5077277;28;19920;-56
2023/04/03 03:27:28;;;;;;;;;;;6.50;99.90;;;;;;5077496;28;19913;-56
2023/04/03 03:29:53;;;;;;;;;;;6.40;99.90;;;;;;5077229;28;19913;-56
2023/04/03 03:32:20;;;;;;;;;;;6.50;99.90;;;;;;5059197;28;19925;-56
2023/04/03 03:34:46;;;;;;;;;;;6.50;99.90;;;;;;5059191;28;20285;-56
2023/04/03 03:37:11;;;;;;;;;;;6.50;99.90;;;;;;5059038;28;20005;-56
2023/04/03 03:39:37;;;;;;;;;;;6.50;99.90;;;;;;5076945;28;19931;-56
2023/04/03 03:42:03;;;;;;;;;;;6.50;99.90;;;;;;5077247;28;19913;-56
2023/04/03 03:44:29;;;;;;;;;;;6.40;99.90;;;;;;5058984;28;20431;-56
2023/04/03 03:46:56;;;;;;;;;;;6.40;99.90;;;;;;5059270;28;20432;-56
2023/04/03 03:49:21;;;;;;;;;;;6.40;99.90;;;;;;5058932;28;19917;-56
2023/04/03 03:51:47;;;;;;;;;;;6.30;99.90;;;;;;5058723;28;19913;-56
2023/04/03 03:54:13;;;;;;;;;;;6.30;99.90;;;;;;5058665;28;19921;-56
2023/04/03 03:56:39;;;;;;;;;;;6.20;99.90;;;;;;5058584;28;20008;-56
2023/04/03 03:59:06;;;;;;;;;;;6.10;99.90;;;;;;5058668;28;19932;-56
2023/04/03 04:01:32;;;;;;;;;;;6.10;99.90;;;;;;5058641;28;20273;-56
2023/04/03 04:03:58;;;;;;;;;;;6.10;99.90;;;;;;5058600;28;19916;-56
2023/04/03 04:06:28;;;;;;;;;;;5.60;99.90;;;;;;5057096;28;19912;-56
2023/04/03 04:08:57;;;;;;;;;;;5.30;99.90;;;;;;5058399;28;19961;-56
2023/04/03 04:11:24;;;;;;;;;;;5.20;99.90;;;;;;5058378;28;19920;-56
2023/04/03 04:13:52;;;;;;;;;;;5.10;99.90;;;;;;5058303;28;19913;-56
2023/04/03 04:16:20;;;;;;;;;;;4.90;99.90;;;;;;5058328;28;20168;-56
2023/04/03 04:18:46;;;;;;;;;;;5.00;99.90;;;;;;5058142;28;20304;-56
2023/04/03 04:21:12;;;;;;;;;;;5.00;99.90;;;;;;5058079;28;19917;-56
2023/04/03 04:23:40;;;;;;;;;;;4.90;99.90;;;;;;5058237;28;19912;-56
2023/04/03 04:26:05;;;;;;;;;;;5.00;99.90;;;;;;5058033;28;19916;-56
2023/04/03 04:28:35;;;;;;;;;;;4.90;99.90;;;;;;5058121;28;19952;-56
2023/04/03 04:31:02;;;;;;;;;;;5.00;99.90;;;;;;5058016;28;19916;-56
2023/04/03 04:33:29;;;;;;;;;;;4.90;99.90;;;;;;5057906;28;19940;-56
2023/04/03 04:35:58;;;;;;;;;;;4.70;99.90;;;;;;5057966;28;20354;-56
2023/04/03 04:38:24;;;;;;;;;;;4.80;99.90;;;;;;5057734;28;19916;-56
2023/04/03 04:40:52;;;;;;;;;;;4.80;99.90;;;;;;5057658;28;19994;-56
2023/04/03 04:43:18;;;;;;;;;;;4.70;99.90;;;;;;5057573;28;19916;-56
2023/04/03 04:45:47;;;;;;;;;;;4.80;99.90;;;;;;5057829;28;19924;-56
2023/04/03 04:48:13;;;;;;;;;;;4.80;99.90;;;;;;5057364;28;19913;-56
2023/04/03 04:50:39;;;;;;;;;;;5.00;99.90;;;;;;5057582;28;19920;-56
2023/04/03 04:53:05;;;;;;;;;;;5.00;99.90;;;;;;5057459;28;19952;-56
2023/04/03 04:55:31;;;;;;;;;;;4.80;99.90;;;;;;5057611;28;19916;-56
2023/04/03 04:57:57;;;;;;;;;;;4.70;99.90;;;;;;5057568;28;20369;-56
2023/04/03 05:00:23;;;;;;;;;;;4.60;99.90;;;;;;5075435;28;19966;-56
2023/04/03 05:02:49;;;;;;;;;;;4.50;99.90;;;;;;5075148;28;19913;-56
2023/04/03 05:05:17;;;;;;;;;;;4.60;99.90;;;;;;5057269;28;19917;-56
2023/04/03 05:07:43;;;;;;;;;;;4.60;99.90;;;;;;5057473;28;20320;-56
2023/04/03 05:10:09;;;;;;;;;;;4.70;99.90;;;;;;5056951;28;19938;-56
2023/04/03 05:12:36;;;;;;;;;;;4.60;99.90;;;;;;5057348;28;19917;-56
2023/04/03 05:15:04;;;;;;;;;;;4.60;99.90;;;;;;5057808;28;19912;-56
2023/04/03 05:17:30;;;;;;;;;;;4.70;99.90;;;;;;5057091;28;19916;-56
2023/04/03 05:19:57;;;;;;;;;;;4.70;99.90;;;;;;5056861;28;19920;-56
2023/04/03 05:22:25;;;;;;;;;;;4.80;99.90;;;;;;5057041;28;19916;-56
2023/04/03 05:24:54;;;;;;;;;;;4.50;99.90;;;;;;5056615;28;19916;-56
2023/04/03 05:27:20;;;;;;;;;;;4.50;99.90;;;;;;5055004;28;19958;-56
2023/04/03 05:29:52;;;;;;;;;;;4.50;99.90;;;;;;5057151;28;20003;-56
2023/04/03 05:32:20;;;;;;;;;;;4.40;99.90;;;;;;5057602;28;19917;-56
2023/04/03 05:34:51;;;;;;;;;;;4.50;99.90;;;;;;5057494;28;20431;-56
2023/04/03 05:37:19;;;;;;;;;;;4.40;99.90;;;;;;5056630;28;20011;-56
2023/04/03 05:39:45;;;;;;;;;;;4.40;99.90;;;;;;5074519;28;19908;-56
2023/04/03 05:42:12;;;;;;;;;;;4.40;99.90;;;;;;5074192;28;20305;-56
2023/04/03 05:44:38;;;;;;;;;;;4.50;99.90;;;;;;5054290;28;19990;-56
2023/04/03 05:47:04;;;;;;;;;;;4.50;99.90;;;;;;5055508;28;19908;-56
2023/04/03 05:49:31;;;;;;;;;;;4.70;99.90;;;;;;5056506;28;19912;-56
2023/04/03 05:51:56;;;;;;;;;;;4.70;99.90;;;;;;5056157;28;19916;-56
2023/04/03 05:54:26;;;;;;;;;;;4.60;99.90;;;;;;5089910;28;19974;-56
2023/04/03 05:56:57;;;;;;;;;;;4.70;99.90;;;;;;5056247;28;19916;-56
2023/04/03 05:59:24;;;;;;;;;;;4.70;99.90;;;;;;5089984;28;20348;-56
2023/04/03 06:01:52;;;;;;;;;;;4.70;99.90;;;;;;5090075;28;19924;-56
2023/04/03 06:04:19;;;;;;;;;;;4.70;99.90;;;;;;5056526;28;19912;-56
2023/04/03 06:06:51;;;;;;;;;;;4.70;99.90;;;;;;5056040;28;19966;-56
2023/04/03 06:09:17;;;;;;;;;;;4.80;99.90;;;;;;5074301;28;19917;-56
2023/04/03 06:11:43;;;;;;;;;;;4.80;99.90;;;;;;5074186;28;19958;-56
2023/04/03 06:14:10;;;;;;;;;;;4.80;99.90;;;;;;5056288;28;20313;-56
2023/04/03 06:16:35;;;;;;;;;;;5.00;99.90;;;;;;5056406;28;19917;-56
2023/04/03 06:19:02;;;;;;;;;;;5.00;99.90;;;;;;5074260;28;19918;-56
2023/04/03 06:21:28;;;;;;;;;;;5.00;99.90;;;;;;5056193;28;19913;-56
2023/04/03 06:23:53;;;;;;;;;;;5.10;99.90;;;;;;5074157;28;19919;-56
2023/04/03 06:26:22;;;;;;;;;;;5.10;99.90;;;;;;5055926;28;19924;-56
2023/04/03 06:28:48;;;;;;;;;;;5.10;99.90;;;;;;5074088;28;19913;-55
2023/04/03 06:31:13;;;;;;;;;;;5.20;99.90;;;;;;5077742;28;19917;-56
2023/04/03 06:33:40;;;;;;;;;;;5.10;99.90;;;;;;5077824;28;19920;-56
2023/04/03 06:36:06;;;;;;;;;;;5.20;99.90;;;;;;5077734;28;19954;-56
2023/04/03 06:38:32;;;;;;;;;;;5.20;99.90;;;;;;5078121;28;19921;-56
2023/04/03 06:40:58;;;;;;;;;;;5.30;99.90;;;;;;5078076;28;20357;-56
2023/04/03 06:43:24;;;;;;;;;;;5.40;99.90;;;;;;5077523;28;19939;-56
2023/04/03 06:45:50;;;;;;;;;;;5.30;99.90;;;;;;5077818;28;19920;-56
2023/04/03 06:48:16;;;;;;;;;;;5.20;99.90;;;;;;5077684;28;19912;-56
2023/04/03 06:50:42;;;;;;;;;;;5.40;99.90;;;;;;5077861;28;19919;-56
2023/04/03 06:53:08;;;;;;;;;;;5.40;99.90;;;;;;5077461;28;19970;-56
2023/04/03 06:55:35;;;;;;;;;;;5.50;99.90;;;;;;5077320;28;19965;-56
2023/04/03 06:58:01;;;;;;;;;;;5.50;99.90;;;;;;5077568;28;20032;-56
2023/04/03 07:00:27;;;;;;;;;;;5.50;99.90;;;;;;5077563;28;20011;-56
2023/04/03 07:02:53;;;;;;;;;;;5.50;99.90;;;;;;5077436;28;19913;-56
2023/04/03 07:05:19;;;;;;;;;;;5.50;99.90;;;;;;5077181;28;20191;-56
2023/04/03 07:07:44;;;;;;;;;;;5.70;99.90;;;;;;5077539;28;20383;-56
2023/04/03 07:10:13;;;;;;;;;;;5.70;99.90;;;;;;5076850;28;19934;-56
2023/04/03 07:12:42;;;;;;;;;;;5.60;99.90;;;;;;5077183;28;19916;-56
2023/04/03 07:15:12;;;;;;;;;;;5.80;99.90;;;;;;5073601;28;19919;-57
2023/04/03 07:17:38;;;;;;;;;;;5.80;99.90;;;;;;5077033;28;19926;-57
2023/04/03 07:20:04;;;;;;;;;;;5.60;99.90;;;;;;5076137;28;20003;-56
2023/04/03 07:22:30;;;;;;;;;;;5.70;99.90;;;;;;5058789;28;19919;-56
2023/04/03 07:24:56;;;;;;;;;;;5.80;99.90;;;;;;5077915;28;19920;-56
2023/04/03 07:27:22;;;;;;;;;;;5.60;99.90;;;;;;5077780;28;19912;-56
2023/04/03 07:29:48;;;;;;;;;;;5.70;99.90;;;;;;5077102;28;19989;-56
2023/04/03 07:32:15;;;;;;;;;;;5.70;99.90;;;;;;5075898;28;19916;-56
2023/04/03 07:34:40;;;;;;;;;;;5.80;99.90;;;;;;5077576;28;20003;-56
2023/04/03 07:37:06;;;;;;;;;;;5.80;99.90;;;;;;5077574;28;20015;-56
2023/04/03 07:39:32;;;;;;;;;;;5.80;99.90;;;;;;5077272;28;19916;-56
2023/04/03 07:41:58;;;;;;;;;;;5.70;99.90;;;;;;5076490;28;19912;-56
2023/04/03 07:44:24;;;;;;;;;;;5.80;99.90;;;;;;5076384;28;19919;-56
2023/04/03 07:46:50;;;;;;;;;;;5.70;99.90;;;;;;5077083;28;19920;-56
2023/04/03 07:49:17;;;;;;;;;;;5.70;99.90;;;;;;5077384;28;19912;-56
2023/04/03 07:51:43;;;;;;;;;;;5.80;99.90;;;;;;5076510;28;20254;-56
2023/04/03 07:54:10;;;;;;;;;;;5.80;99.90;;;;;;5076139;28;19955;-56
2023/04/03 07:56:36;;;;;;;;;;;5.70;99.90;;;;;;5075530;28;20376;-56
2023/04/03 07:59:02;;;;;;;;;;;5.80;99.90;;;;;;5075927;28;19912;-56
2023/04/03 08:01:28;;;;;;;;;;;5.80;99.90;;;;;;5074705;28;19916;-56
2023/04/03 08:03:57;;;;;;;;;;;5.90;99.90;;;;;;5073379;28;19912;-56
2023/04/03 08:06:23;;;;;;;;;;;5.90;99.90;;;;;;5071623;28;19916;-56
2023/04/03 08:08:49;;;;;;;;;;;6.00;99.90;;;;;;5056062;28;19955;-56
2023/04/03 08:11:14;;;;;;;;;;;6.00;99.90;;;;;;5072774;28;19917;-56
2023/04/03 08:13:41;;;;;;;;;;;6.00;99.90;;;;;;5075950;28;19913;-56
2023/04/03 08:16:17;;;;;;;;;;;6.10;99.90;;;;;;5075852;28;19928;-56
2023/04/03 08:18:43;;;;;;;;;;;6.20;99.90;;;;;;5075733;28;19916;-56
2023/04/03 08:21:10;;;;;;;;;;;6.30;99.90;;;;;;5075893;28;19920;-56
2023/04/03 08:23:36;;;;;;;;;;;6.10;99.90;;;;;;5075887;28;20278;-56
2023/04/03 08:26:21;;;;;;;;;;;6.10;99.90;;;;;;5075319;28;19920;-56
2023/04/03 08:28:51;;;;;;;;;;;6.20;99.90;;;;;;5075464;28;20374;-56
2023/04/03 08:31:20;;;;;;;;;;;6.10;99.90;;;;;;5075312;28;19928;-56
2023/04/03 08:33:46;;;;;;;;;;;6.20;99.90;;;;;;5075679;28;19916;-56
2023/04/03 08:36:20;;;;;;;;;;;6.10;99.90;;;;;;5075620;28;19962;-56
2023/04/03 08:38:46;;;;;;;;;;;6.10;99.90;;;;;;5075573;28;20283;-56
2023/04/03 08:41:19;;;;;;;;;;;6.10;99.90;;;;;;5075459;28;19923;-56
2023/04/03 08:43:45;;;;;;;;;;;6.20;99.90;;;;;;5075259;28;20039;-56
2023/04/03 08:46:13;;;;;;;;;;;6.20;99.90;;;;;;5075279;28;19959;-56
2023/04/03 08:48:42;;;;;;;;;;;6.10;99.90;;;;;;5075173;28;19920;-57
2023/04/03 08:51:16;;;;;;;;;;;6.20;99.90;;;;;;5075475;28;19913;-56
2023/04/03 08:53:45;;;;;;;;;;;6.10;99.90;;;;;;5075244;28;20002;-56
2023/04/03 08:56:12;;;;;;;;;;;6.20;99.90;;;;;;5075788;28;19919;-56
2023/04/03 08:58:48;;;;;;;;;;;6.10;99.90;;;;;;5076036;28;20012;-56
2023/04/03 09:01:21;;;;;;;;;;;6.10;99.90;;;;;;5075794;28;20003;-56
2023/04/03 09:03:47;;;;;;;;;;;6.00;99.90;;;;;;5075506;28;19924;-56
2023/04/03 09:06:19;;;;;;;;;;;5.90;99.90;;;;;;5075811;28;20329;-56
2023/04/03 09:09:10;;;;;;;;;;;6.00;99.90;;;;;;5075672;28;19962;-56
2023/04/03 09:11:42;;;;;;;;;;;6.00;99.90;;;;;;5075652;28;19913;-56
2023/04/03 09:14:15;;;;;;;;;;;5.90;99.90;;;;;;5075588;28;19916;-56
2023/04/03 09:16:55;;;;;;;;;;;5.90;99.90;;;;;;5074894;28;19963;-56
2023/04/03 09:19:25;;;;;;;;;;;5.90;99.90;;;;;;5075551;28;19924;-56
2023/04/03 09:21:51;;;;;;;;;;;6.10;99.90;;;;;;5075362;28;19923;-56
2023/04/03 09:24:17;;;;;;;;;;;6.10;99.90;;;;;;5075441;28;19916;-56
2023/04/03 09:26:51;;;;;;;;;;;6.10;99.90;;;;;;5075741;28;19912;-56
2023/04/03 09:29:18;;;;;;;;;;;6.20;99.90;;;;;;5074919;28;19979;-56
2023/04/03 09:31:47;;;;;;;;;;;6.30;99.90;;;;;;5075591;28;19920;-56
2023/04/03 09:34:32;;;;;;;;;;;6.30;99.90;;;;;;5075463;28;19912;-56
2023/04/03 09:37:05;;;;;;;;;;;6.30;99.90;;;;;;5074833;28;20394;-56
2023/04/03 09:39:32;;;;;;;;;;;6.30;99.90;;;;;;5075073;28;19912;-56
2023/04/03 09:42:01;;;;;;;;;;;6.30;99.90;;;;;;5075126;28;19912;-57
2023/04/03 09:44:31;;;;;;;;;;;6.30;99.90;;;;;;5074865;28;19924;-56
2023/04/03 09:47:00;;;;;;;;;;;6.50;99.90;;;;;;5074189;28;19974;-57
2023/04/03 09:49:29;;;;;;;;;;;6.40;99.90;;;;;;5075289;28;19913;-57
2023/04/03 09:51:55;;;;;;;;;;;6.40;99.90;;;;;;5074920;28;19912;-57
2023/04/03 09:54:37;;;;;;;;;;;6.30;99.90;;;;;;5074994;28;20013;-57
2023/04/03 09:57:11;;;;;;;;;;;6.50;99.90;;;;;;5074513;28;20625;-57
2023/04/03 09:59:41;;;;;;;;;;;6.60;99.90;;;;;;5075249;28;20370;-56
2023/04/03 10:02:06;;;;;;;;;;;6.70;99.90;;;;;;5075006;28;19917;-57
2023/04/03 10:04:41;;;;;;;;;;;6.60;99.90;;;;;;5075984;28;19916;-57
2023/04/03 10:07:31;;;;;;;;;;;6.60;99.90;;;;;;5079109;28;19970;-57
2023/04/03 10:09:58;;;;;;;;;;;6.60;99.90;;;;;;5078318;28;19920;-57
2023/04/03 10:12:23;;;;;;;;;;;6.70;99.90;;;;;;5077823;28;19995;-57
2023/04/03 10:14:52;;;;;;;;;;;6.70;99.90;;;;;;5078236;28;19950;-57
2023/04/03 10:17:22;;;;;;;;;;;6.70;99.90;;;;;;5061448;28;19916;-57
2023/04/03 10:19:57;;;;;;;;;;;6.70;99.90;;;;;;5077625;28;19913;-57
2023/04/03 10:22:23;;;;;;;;;;;6.60;99.90;;;;;;5075853;28;19917;-57
2023/04/03 10:25:00;;;;;;;;;;;6.60;99.90;;;;;;5076176;28;19966;-57
2023/04/03 10:27:26;;;;;;;;;;;6.50;99.90;;;;;;5078039;28;19959;-57
2023/04/03 10:30:14;;;;;;;;;;;6.50;99.90;;;;;;5077274;28;19912;-57
2023/04/03 10:32:54;;;;;;;;;;;6.50;99.90;;;;;;5069102;28;19912;-57
2023/04/03 10:35:20;;;;;;;;;;;6.60;99.90;;;;;;5077932;28;19917;-57
2023/04/03 10:38:04;;;;;;;;;;;6.60;99.90;;;;;;5077975;28;19916;-57
2023/04/03 10:40:32;;;;;;;;;;;6.60;99.90;;;;;;5077506;28;19912;-57
2023/04/03 10:43:04;;;;;;;;;;;6.70;99.90;;;;;;5077879;28;19917;-57
2023/04/03 10:45:39;;;;;;;;;;;6.70;99.90;;;;;;5077147;28;19978;-57
2023/04/03 10:48:16;;;;;;;;;;;6.70;99.90;;;;;;5074301;28;19916;-57
2023/04/03 10:50:44;;;;;;;;;;;6.70;99.90;;;;;;5076038;28;19923;-57
2023/04/03 10:53:13;;;;;;;;;;;6.70;99.90;;;;;;5076277;28;19931;-57
2023/04/03 10:55:57;;;;;;;;;;;6.70;99.90;;;;;;5077217;28;19916;-57
2023/04/03 10:58:33;;;;;;;;;;;6.70;99.90;;;;;;5076811;28;19921;-57
2023/04/03 11:01:13;;;;;;;;;;;6.80;99.90;;;;;;5075202;28;19912;-57
2023/04/03 11:03:42;;;;;;;;;;;6.70;99.90;;;;;;5075437;28;19912;-57
2023/04/03 11:06:09;;;;;;;;;;;6.80;99.90;;;;;;5076585;28;19917;-57
2023/04/03 11:08:35;;;;;;;;;;;6.70;99.90;;;;;;5076539;28;19912;-57
2023/04/03 11:11:17;;;;;;;;;;;6.80;99.90;;;;;;5077332;28;19909;-57
2023/04/03 11:13:50;;;;;;;;;;;6.80;99.90;;;;;;5077029;28;20003;-57
2023/04/03 11:16:20;;;;;;;;;;;6.70;99.90;;;;;;5076518;28;20372;-57
2023/04/03 11:18:49;;;;;;;;;;;6.70;99.90;;;;;;5077345;28;19921;-57
2023/04/03 11:21:26;;;;;;;;;;;6.70;99.90;;;;;;5077443;28;19965;-57
2023/04/03 11:23:53;;;;;;;;;;;6.70;99.90;;;;;;5075965;28;19916;-57
2023/04/03 11:26:21;;;;;;;;;;;6.80;99.90;;;;;;5076838;28;20468;-57
2023/04/03 11:28:52;;;;;;;;;;;6.80;99.90;;;;;;5076725;28;20373;-57
2023/04/03 11:31:36;;;;;;;;;;;6.70;99.90;;;;;;5076920;28;19920;-57
2023/04/03 11:34:02;;;;;;;;;;;6.70;99.90;;;;;;5076919;28;19919;-57
2023/04/03 11:36:30;;;;;;;;;;;6.60;99.90;;;;;;5076551;28;20326;-57
2023/04/03 11:39:02;;;;;;;;;;;6.70;99.90;;;;;;5076976;28;19999;-57
2023/04/03 11:41:30;;;;;;;;;;;6.80;99.90;;;;;;5076733;28;19951;-57
2023/04/03 11:43:56;;;;;;;;;;;6.80;99.90;;;;;;5074598;28;19927;-57
2023/04/03 11:46:22;;;;;;;;;;;6.80;99.90;;;;;;5076082;28;19951;-57
2023/04/03 11:48:49;;;;;;;;;;;6.70;99.90;;;;;;5077441;28;19919;-57
2023/04/03 11:51:20;;;;;;;;;;;6.80;99.90;;;;;;5077133;28;20267;-57
2023/04/03 11:53:46;;;;;;;;;;;6.70;99.90;;;;;;5076507;28;20416;-57
2023/04/03 11:56:27;;;;;;;;;;;6.60;99.90;;;;;;5076404;28;19917;-57
2023/04/03 11:59:05;;;;;;;;;;;6.60;99.90;;;;;;5076995;28;19927;-57
2023/04/03 12:01:51;;;;;;;;;;;6.50;99.90;;;;;;5076685;28;19913;-57
2023/04/03 12:04:17;;;;;;;;;;;6.40;99.90;;;;;;5076696;28;20263;-57
2023/04/03 12:06:46;;;;;;;;;;;6.60;99.90;;;;;;5075913;28;19955;-57
2023/04/03 12:09:27;;;;;;;;;;;6.50;99.90;;;;;;5075329;28;19921;-57
2023/04/03 12:11:53;;;;;;;;;;;6.50;99.90;;;;;;5075402;28;19920;-57
2023/04/03 12:14:22;;;;;;;;;;;6.50;99.90;;;;;;5076232;28;19920;-57
2023/04/03 12:16:48;;;;;;;;;;;6.50;99.90;;;;;;5075712;28;19921;-57
2023/04/03 12:19:13;;;;;;;;;;;6.50;99.90;;;;;;5075694;28;19935;-57
2023/04/03 12:21:46;;;;;;;;;;;6.40;99.90;;;;;;5076241;28;19918;-57
2023/04/03 12:24:19;;;;;;;;;;;6.50;99.90;;;;;;5076595;28;19917;-57
2023/04/03 12:27:01;;;;;;;;;;;6.50;99.90;;;;;;5075925;28;20007;-57
2023/04/03 12:29:29;;;;;;;;;;;6.60;99.90;;;;;;5060243;28;19947;-57
2023/04/03 12:32:00;;;;;;;;;;;6.50;99.90;;;;;;5075389;28;19958;-57
2023/04/03 12:34:41;;;;;;;;;;;6.50;99.90;;;;;;5074785;28;19916;-57
2023/04/03 12:37:15;;;;;;;;;;;6.60;99.90;;;;;;5074898;28;19920;-57
2023/04/03 12:39:41;;;;;;;;;;;6.60;99.90;;;;;;5075792;28;20004;-57
2023/04/03 12:42:22;;;;;;;;;;;6.70;99.90;;;;;;5074700;28;19948;-57
2023/04/03 12:44:54;;;;;;;;;;;6.60;99.90;;;;;;5071618;28;19924;-57
2023/04/03 12:47:33;;;;;;;;;;;6.60;99.90;;;;;;5073135;28;19917;-57
2023/04/03 12:49:59;;;;;;;;;;;6.60;99.90;;;;;;5075489;28;19981;-57
2023/04/03 12:52:35;;;;;;;;;;;6.60;99.90;;;;;;5075207;28;19915;-57
2023/04/03 12:55:03;;;;;;;;;;;6.40;99.90;;;;;;5074794;28;19934;-57
2023/04/03 12:57:30;;;;;;;;;;;6.40;99.90;;;;;;5075404;28;20273;-57
2023/04/03 12:59:56;;;;;;;;;;;6.50;99.90;;;;;;5075100;28;19913;-57
2023/04/03 13:02:24;;;;;;;;;;;6.40;99.90;;;;;;5075239;28;19947;-57
2023/04/03 13:04:52;;;;;;;;;;;6.40;99.90;;;;;;5074738;28;19987;-57
2023/04/03 13:07:28;;;;;;;;;;;6.50;99.90;;;;;;5074245;28;19970;-57
2023/04/03 13:10:16;;;;;;;;;;;6.50;99.90;;;;;;5074553;28;20010;-57
2023/04/03 13:12:52;;;;;;;;;;;6.50;99.90;;;;;;5074889;28;19912;-57
2023/04/03 13:15:20;;;;;;;;;;;6.50;99.90;;;;;;5074230;28;20011;-57
2023/04/03 13:17:48;;;;;;;;;;;6.50;99.90;;;;;;5074790;28;19924;-57
2023/04/03 13:20:17;;;;;;;;;;;6.60;99.90;;;;;;5074610;28;19912;-57
2023/04/03 13:23:04;;;;;;;;;;;6.50;99.90;;;;;;5069405;28;20308;-57
2023/04/03 13:25:32;;;;;;;;;;;6.60;99.90;;;;;;5071351;28;20275;-57
2023/04/03 13:27:59;;;;;;;;;;;6.50;99.90;;;;;;5060913;28;19916;-57
2023/04/03 13:30:33;;;;;;;;;;;6.50;99.90;;;;;;5054835;28;19951;-57
2023/04/03 13:33:00;;;;;;;;;;;6.60;99.90;;;;;;5055056;28;19913;-56
2023/04/03 13:35:26;;;;;;;;;;;6.40;99.90;;;;;;5054633;28;20346;-57
2023/04/03 13:37:58;;;;;;;;;;;6.40;99.90;;;;;;5054670;28;19970;-57
2023/04/03 13:40:24;;;;;;;;;;;6.40;99.90;;;;;;5054923;28;19920;-57
2023/04/03 13:43:04;;;;;;;;;;;6.50;99.90;;;;;;5054495;28;20282;-57
2023/04/03 13:45:31;;;;;;;;;;;6.40;99.90;;;;;;5054734;28;20396;-57
2023/04/03 13:48:30;;;;;;;;;;;6.50;99.90;;;;;;5054694;28;19939;-57
2023/04/03 13:51:00;;;;;;;;;;;6.60;99.90;;;;;;5021019;28;20427;-57
2023/04/03 13:53:27;;;;;;;;;;;6.60;99.90;;;;;;5054481;28;19959;-57
2023/04/03 13:55:58;;;;;;;;;;;6.60;99.90;;;;;;5054546;28;19923;-57
2023/04/03 13:58:25;;;;;;;;;;;6.70;99.90;;;;;;5054449;28;19916;-57
2023/04/03 14:00:52;;;;;;;;;;;6.60;99.90;;;;;;5054761;28;19917;-57
2023/04/03 14:03:40;;;;;;;;;;;6.70;99.90;;;;;;5054444;28;20321;-57
2023/04/03 14:06:06;;;;;;;;;;;6.70;99.90;;;;;;5070307;28;20401;-57
2023/04/03 14:08:32;;;;;;;;;;;6.70;99.90;;;;;;5074543;28;19912;-57
2023/04/03 14:10:58;;;;;;;;;;;6.70;99.90;;;;;;5074446;28;19923;-57
2023/04/03 14:13:24;;;;;;;;;;;6.70;99.90;;;;;;5074470;28;19913;-57
2023/04/03 14:15:51;;;;;;;;;;;6.80;99.90;;;;;;5074545;28;19908;-57
2023/04/03 14:18:18;;;;;;;;;;;6.90;99.90;;;;;;5074194;28;20373;-57
2023/04/03 14:20:44;;;;;;;;;;;6.80;99.90;;;;;;5074773;28;19991;-57
2023/04/03 14:23:10;;;;;;;;;;;6.80;99.90;;;;;;5074425;28;19919;-57
2023/04/03 14:25:37;;;;;;;;;;;6.80;99.90;;;;;;5074232;28;19962;-57
2023/04/03 14:28:17;;;;;;;;;;;6.80;99.90;;;;;;5074398;28;20380;-57
2023/04/03 14:30:43;;;;;;;;;;;6.80;99.90;;;;;;5074664;28;20229;-57
2023/04/03 14:33:12;;;;;;;;;;;6.70;99.90;;;;;;5074146;28;20003;-57
2023/04/03 14:35:38;;;;;;;;;;;6.70;99.90;;;;;;5074330;28;20219;-57
2023/04/03 14:38:11;;;;;;;;;;;6.70;99.90;;;;;;5074246;28;20404;-57
2023/04/03 14:40:37;;;;;;;;;;;6.80;99.90;;;;;;5074347;28;20385;-57